FDX2230 KSLC-KMEM
Flight info
| Callsign | FDX2230 |
|---|---|
| Flight time | 2h 21m |
| Altitude | 39000 |
| Route | ZIONZ1 KIMMR HBU KD48W KK45A KK42C KK39E RZC BRBBQ3 |
| Aircraft | MD11/H-SDE1E2E3FGHIJ2J3J4J5M1RWXY/LB1D1 |
Departure
| Time | 2026-05-07 16:20 |
|---|---|
| Airport | Salt Lake City International Airport (KSLC) |
Arrival
| Time | 2026-05-07 18:41 |
|---|---|
| Airport | Memphis International Airport (KMEM) |
| Time | Latitude | Longitude | Altitude | Speed | Heading |
|---|---|---|---|---|---|
| 2026-05-07 15:58 | 40.80535 | -111.98340 | 4238 ft | 0 kts | 175° |
| 2026-05-07 16:11 | 40.80541 | -111.98341 | 4236 ft | 4 kts | 169° |
| 2026-05-07 16:11 | 40.80558 | -111.98347 | 4237 ft | 4 kts | 172° |
| 2026-05-07 16:11 | 40.80585 | -111.98352 | 4237 ft | 4 kts | 164° |
| 2026-05-07 16:11 | 40.80603 | -111.98360 | 4237 ft | 4 kts | 118° |
| 2026-05-07 16:12 | 40.80605 | -111.98364 | 4237 ft | 1 kts | 85° |
| 2026-05-07 16:12 | 40.80605 | -111.98367 | 4237 ft | 0 kts | 85° |
| 2026-05-07 16:16 | 40.80605 | -111.98366 | 4238 ft | 0 kts | 85° |
| 2026-05-07 16:16 | 40.80607 | -111.98338 | 4238 ft | 8 kts | 85° |
| 2026-05-07 16:16 | 40.80614 | -111.98228 | 4237 ft | 17 kts | 85° |
| 2026-05-07 16:17 | 40.80631 | -111.98058 | 4237 ft | 11 kts | 69° |
| 2026-05-07 16:17 | 40.80657 | -111.97972 | 4238 ft | 10 kts | 85° |
| 2026-05-07 16:17 | 40.80658 | -111.97874 | 4238 ft | 9 kts | 105° |
| 2026-05-07 16:17 | 40.80635 | -111.97834 | 4238 ft | 3 kts | 123° |
| 2026-05-07 16:18 | 40.80632 | -111.97815 | 4238 ft | 5 kts | 104° |
| 2026-05-07 16:18 | 40.80634 | -111.97742 | 4237 ft | 12 kts | 88° |
| 2026-05-07 16:18 | 40.80618 | -111.97693 | 4236 ft | 4 kts | 142° |
| 2026-05-07 16:18 | 40.80580 | -111.97678 | 4238 ft | 9 kts | 168° |
| 2026-05-07 16:19 | 40.80495 | -111.97668 | 4240 ft | 15 kts | 176° |
| 2026-05-07 16:19 | 40.80393 | -111.97658 | 4240 ft | 14 kts | 175° |
| 2026-05-07 16:19 | 40.80275 | -111.97644 | 4240 ft | 32 kts | 175° |
| 2026-05-07 16:19 | 40.79723 | -111.97572 | 4236 ft | 126 kts | 176° |
| 2026-05-07 16:20 | 40.78644 | -111.97444 | 4546 ft | 167 kts | 174° |
| 2026-05-07 16:20 | 40.77493 | -111.97303 | 5715 ft | 158 kts | 175° |
| 2026-05-07 16:20 | 40.76385 | -111.97177 | 6949 ft | 167 kts | 174° |
| 2026-05-07 16:20 | 40.75215 | -111.96970 | 8090 ft | 176 kts | 173° |
| 2026-05-07 16:21 | 40.73979 | -111.96756 | 9263 ft | 182 kts | 180° |
| 2026-05-07 16:21 | 40.72592 | -111.96678 | 9856 ft | 226 kts | 183° |
| 2026-05-07 16:21 | 40.70825 | -111.96619 | 10043 ft | 281 kts | 182° |
| 2026-05-07 16:21 | 40.68671 | -111.96531 | 10195 ft | 338 kts | 181° |
| 2026-05-07 16:22 | 40.66217 | -111.96401 | 11087 ft | 360 kts | 180° |
| 2026-05-07 16:22 | 40.63674 | -111.96248 | 12379 ft | 372 kts | 180° |
| 2026-05-07 16:22 | 40.61052 | -111.96087 | 13653 ft | 383 kts | 180° |
| 2026-05-07 16:22 | 40.58358 | -111.95922 | 14781 ft | 392 kts | 180° |
| 2026-05-07 16:23 | 40.55603 | -111.95754 | 15914 ft | 400 kts | 180° |
| 2026-05-07 16:23 | 40.52801 | -111.95584 | 17009 ft | 408 kts | 181° |
| 2026-05-07 16:23 | 40.49935 | -111.95382 | 18051 ft | 417 kts | 178° |
| 2026-05-07 16:23 | 40.47044 | -111.94706 | 18940 ft | 429 kts | 165° |
| 2026-05-07 16:24 | 40.44322 | -111.93002 | 19775 ft | 441 kts | 146° |
| 2026-05-07 16:24 | 40.42037 | -111.90353 | 20565 ft | 450 kts | 131° |
| 2026-05-07 16:24 | 40.40053 | -111.87071 | 21404 ft | 457 kts | 124° |
| 2026-05-07 16:24 | 40.38223 | -111.83626 | 22266 ft | 463 kts | 123° |
| 2026-05-07 16:25 | 40.36406 | -111.80180 | 23117 ft | 471 kts | 123° |
| 2026-05-07 16:25 | 40.34480 | -111.76653 | 23997 ft | 478 kts | 124° |
| 2026-05-07 16:25 | 40.32486 | -111.73143 | 24817 ft | 483 kts | 126° |
| 2026-05-07 16:25 | 40.30430 | -111.69629 | 25688 ft | 488 kts | 126° |
| 2026-05-07 16:26 | 40.28332 | -111.66104 | 26567 ft | 493 kts | 127° |
| 2026-05-07 16:26 | 40.26201 | -111.62553 | 27416 ft | 499 kts | 127° |
| 2026-05-07 16:26 | 40.24041 | -111.58963 | 28265 ft | 505 kts | 127° |
| 2026-05-07 16:26 | 40.21852 | -111.55329 | 29051 ft | 511 kts | 127° |
| 2026-05-07 16:27 | 40.19643 | -111.51668 | 29781 ft | 517 kts | 127° |
| 2026-05-07 16:27 | 40.17410 | -111.47958 | 30539 ft | 522 kts | 127° |
| 2026-05-07 16:27 | 40.15160 | -111.44225 | 31339 ft | 521 kts | 126° |
| 2026-05-07 16:27 | 40.12921 | -111.40514 | 32277 ft | 518 kts | 126° |
| 2026-05-07 16:28 | 40.10690 | -111.36822 | 33166 ft | 516 kts | 126° |
| 2026-05-07 16:28 | 40.08470 | -111.33150 | 34044 ft | 514 kts | 126° |
| 2026-05-07 16:28 | 40.06258 | -111.29494 | 34800 ft | 512 kts | 126° |
| 2026-05-07 16:28 | 40.04053 | -111.25854 | 35505 ft | 510 kts | 125° |
| 2026-05-07 16:29 | 40.01853 | -111.22227 | 36175 ft | 509 kts | 126° |
| 2026-05-07 16:29 | 39.99658 | -111.18614 | 36824 ft | 506 kts | 125° |
| 2026-05-07 16:29 | 39.97475 | -111.15021 | 37500 ft | 504 kts | 125° |
| 2026-05-07 16:29 | 39.95297 | -111.11443 | 37978 ft | 505 kts | 124° |
| 2026-05-07 16:30 | 39.93112 | -111.07858 | 38386 ft | 505 kts | 124° |
| 2026-05-07 16:30 | 39.90923 | -111.04284 | 38806 ft | 504 kts | 125° |
| 2026-05-07 16:30 | 39.88727 | -111.00719 | 38952 ft | 504 kts | 125° |
| 2026-05-07 16:31 | 39.84337 | -110.93591 | 38983 ft | 504 kts | 125° |
| 2026-05-07 16:31 | 39.79974 | -110.86487 | 39003 ft | 502 kts | 125° |
| 2026-05-07 16:32 | 39.75621 | -110.79404 | 39025 ft | 502 kts | 125° |
| 2026-05-07 16:32 | 39.71249 | -110.72303 | 39005 ft | 504 kts | 125° |
| 2026-05-07 16:33 | 39.66868 | -110.65206 | 39009 ft | 503 kts | 125° |
| 2026-05-07 16:33 | 39.62492 | -110.58138 | 39012 ft | 502 kts | 125° |
| 2026-05-07 16:34 | 39.58118 | -110.51088 | 39009 ft | 501 kts | 125° |
| 2026-05-07 16:34 | 39.53741 | -110.44045 | 39009 ft | 503 kts | 126° |
| 2026-05-07 16:35 | 39.49350 | -110.36998 | 39004 ft | 501 kts | 126° |
| 2026-05-07 16:35 | 39.45004 | -110.30041 | 39003 ft | 500 kts | 126° |
| 2026-05-07 16:36 | 39.40632 | -110.23055 | 39003 ft | 499 kts | 126° |
| 2026-05-07 16:36 | 39.36240 | -110.16099 | 39008 ft | 500 kts | 126° |
| 2026-05-07 16:37 | 39.31856 | -110.09164 | 38995 ft | 496 kts | 126° |
| 2026-05-07 16:37 | 39.27503 | -110.02264 | 39002 ft | 495 kts | 126° |
| 2026-05-07 16:38 | 39.23178 | -109.95344 | 38990 ft | 494 kts | 123° |
| 2026-05-07 16:38 | 39.21397 | -109.91595 | 39008 ft | 488 kts | 112° |
| 2026-05-07 16:38 | 39.20125 | -109.87567 | 39008 ft | 484 kts | 104° |
| 2026-05-07 16:39 | 39.18232 | -109.79270 | 39004 ft | 481 kts | 102° |
| 2026-05-07 16:39 | 39.16370 | -109.70985 | 39006 ft | 482 kts | 103° |
| 2026-05-07 16:40 | 39.14362 | -109.62747 | 39011 ft | 482 kts | 104° |
| 2026-05-07 16:40 | 39.12290 | -109.54535 | 39019 ft | 482 kts | 104° |
| 2026-05-07 16:41 | 39.10205 | -109.46323 | 39005 ft | 482 kts | 104° |
| 2026-05-07 16:41 | 39.08112 | -109.38087 | 39015 ft | 485 kts | 104° |
| 2026-05-07 16:42 | 39.06012 | -109.29842 | 39015 ft | 485 kts | 104° |
| 2026-05-07 16:42 | 39.03904 | -109.21594 | 39017 ft | 485 kts | 104° |
| 2026-05-07 16:43 | 39.01791 | -109.13352 | 39012 ft | 485 kts | 104° |
| 2026-05-07 16:43 | 38.99665 | -109.05087 | 39017 ft | 488 kts | 105° |
| 2026-05-07 16:44 | 38.97529 | -108.96810 | 39013 ft | 488 kts | 105° |
| 2026-05-07 16:44 | 38.95373 | -108.88530 | 39012 ft | 488 kts | 105° |
| 2026-05-07 16:45 | 38.93194 | -108.80271 | 39012 ft | 488 kts | 105° |
| 2026-05-07 16:45 | 38.91028 | -108.72020 | 39047 ft | 488 kts | 105° |
| 2026-05-07 16:46 | 38.88868 | -108.63765 | 39050 ft | 488 kts | 105° |
| 2026-05-07 16:46 | 38.86701 | -108.55510 | 39051 ft | 488 kts | 106° |
| 2026-05-07 16:47 | 38.84530 | -108.47260 | 39045 ft | 488 kts | 106° |
| 2026-05-07 16:47 | 38.82351 | -108.39005 | 39066 ft | 490 kts | 106° |
| 2026-05-07 16:48 | 38.80173 | -108.30787 | 39089 ft | 490 kts | 106° |
| 2026-05-07 16:48 | 38.77974 | -108.22519 | 39109 ft | 490 kts | 106° |
| 2026-05-07 16:49 | 38.75772 | -108.14268 | 39125 ft | 489 kts | 106° |
| 2026-05-07 16:49 | 38.73564 | -108.06021 | 39127 ft | 489 kts | 106° |
| 2026-05-07 16:50 | 38.71710 | -107.99115 | 39125 ft | 489 kts | 106° |
| 2026-05-07 16:50 | 38.69490 | -107.90874 | 39105 ft | 490 kts | 107° |
| 2026-05-07 16:51 | 38.67253 | -107.82706 | 39088 ft | 490 kts | 107° |
| 2026-05-07 16:51 | 38.65005 | -107.74491 | 39037 ft | 489 kts | 107° |
| 2026-05-07 16:52 | 38.62763 | -107.66263 | 39040 ft | 490 kts | 107° |
| 2026-05-07 16:52 | 38.60518 | -107.58028 | 39053 ft | 490 kts | 107° |
| 2026-05-07 16:53 | 38.58267 | -107.49799 | 39064 ft | 490 kts | 107° |
| 2026-05-07 16:53 | 38.56010 | -107.41575 | 39085 ft | 490 kts | 107° |
| 2026-05-07 16:54 | 38.53744 | -107.33347 | 39116 ft | 492 kts | 108° |
| 2026-05-07 16:54 | 38.51467 | -107.25103 | 39145 ft | 492 kts | 107° |
| 2026-05-07 16:55 | 38.49191 | -107.16889 | 39154 ft | 490 kts | 108° |
| 2026-05-07 16:55 | 38.46908 | -107.08678 | 39173 ft | 491 kts | 108° |
| 2026-05-07 16:56 | 38.44691 | -107.00437 | 39183 ft | 492 kts | 104° |
| 2026-05-07 16:56 | 38.42714 | -106.87617 | 39177 ft | 491 kts | 97° |
| 2026-05-07 16:57 | 38.41641 | -106.79021 | 39145 ft | 491 kts | 97° |
| 2026-05-07 16:57 | 38.40507 | -106.70433 | 39139 ft | 491 kts | 98° |
| 2026-05-07 16:58 | 38.39330 | -106.61827 | 39117 ft | 494 kts | 98° |
| 2026-05-07 16:58 | 38.38136 | -106.53195 | 39111 ft | 495 kts | 99° |
| 2026-05-07 16:59 | 38.36935 | -106.44551 | 39089 ft | 495 kts | 99° |
| 2026-05-07 16:59 | 38.35730 | -106.35918 | 39089 ft | 495 kts | 99° |
| 2026-05-07 17:00 | 38.34512 | -106.27227 | 39080 ft | 501 kts | 99° |
| 2026-05-07 17:00 | 38.33280 | -106.18496 | 39068 ft | 501 kts | 99° |
| 2026-05-07 17:01 | 38.32039 | -106.09759 | 39079 ft | 501 kts | 99° |
| 2026-05-07 17:01 | 38.30793 | -106.01025 | 39060 ft | 501 kts | 99° |
| 2026-05-07 17:02 | 38.29522 | -105.92286 | 39011 ft | 503 kts | 101° |
| 2026-05-07 17:02 | 38.28228 | -105.83525 | 39009 ft | 504 kts | 101° |
| 2026-05-07 17:03 | 38.26948 | -105.74773 | 38958 ft | 501 kts | 101° |
| 2026-05-07 17:03 | 38.25678 | -105.66058 | 38959 ft | 501 kts | 101° |
| 2026-05-07 17:04 | 38.24402 | -105.57359 | 38930 ft | 500 kts | 101° |
| 2026-05-07 17:04 | 38.23123 | -105.48678 | 38870 ft | 499 kts | 101° |
| 2026-05-07 17:05 | 38.21836 | -105.40000 | 38868 ft | 499 kts | 101° |
| 2026-05-07 17:05 | 38.20543 | -105.31325 | 38825 ft | 499 kts | 101° |
| 2026-05-07 17:06 | 38.19241 | -105.22637 | 38871 ft | 501 kts | 101° |
| 2026-05-07 17:06 | 38.17929 | -105.13926 | 38871 ft | 503 kts | 101° |
| 2026-05-07 17:07 | 38.16618 | -105.05266 | 38869 ft | 502 kts | 102° |
| 2026-05-07 17:07 | 38.15292 | -104.96552 | 38895 ft | 502 kts | 102° |
| 2026-05-07 17:08 | 38.13938 | -104.87836 | 38919 ft | 506 kts | 102° |
| 2026-05-07 17:08 | 38.12559 | -104.79058 | 38920 ft | 507 kts | 102° |
| 2026-05-07 17:09 | 38.11193 | -104.70278 | 38929 ft | 508 kts | 102° |
| 2026-05-07 17:09 | 38.09826 | -104.61483 | 38933 ft | 508 kts | 102° |
| 2026-05-07 17:10 | 38.08454 | -104.52691 | 38934 ft | 508 kts | 102° |
| 2026-05-07 17:10 | 38.07073 | -104.43898 | 38928 ft | 508 kts | 102° |
| 2026-05-07 17:11 | 38.05687 | -104.35113 | 38923 ft | 508 kts | 102° |
| 2026-05-07 17:11 | 38.04292 | -104.26326 | 38916 ft | 508 kts | 102° |
| 2026-05-07 17:12 | 38.02890 | -104.17535 | 38895 ft | 510 kts | 103° |
| 2026-05-07 17:12 | 38.01472 | -104.08685 | 38907 ft | 513 kts | 103° |
| 2026-05-07 17:13 | 38.00073 | -103.99804 | 38912 ft | 514 kts | 101° |
| 2026-05-07 17:13 | 37.98986 | -103.90849 | 38919 ft | 514 kts | 99° |
| 2026-05-07 17:14 | 37.98048 | -103.81846 | 38935 ft | 517 kts | 99° |
| 2026-05-07 17:14 | 37.97097 | -103.72794 | 38942 ft | 518 kts | 99° |
| 2026-05-07 17:15 | 37.96118 | -103.63742 | 38911 ft | 519 kts | 99° |
| 2026-05-07 17:15 | 37.95123 | -103.54692 | 38917 ft | 519 kts | 99° |
| 2026-05-07 17:16 | 37.94120 | -103.45638 | 38914 ft | 520 kts | 99° |
| 2026-05-07 17:16 | 37.93107 | -103.36552 | 38910 ft | 521 kts | 99° |
| 2026-05-07 17:17 | 37.92087 | -103.27456 | 38907 ft | 521 kts | 99° |
| 2026-05-07 17:17 | 37.91060 | -103.18366 | 38875 ft | 522 kts | 100° |
| 2026-05-07 17:18 | 37.90029 | -103.09309 | 38893 ft | 525 kts | 100° |
| 2026-05-07 17:18 | 37.88980 | -103.00154 | 38894 ft | 526 kts | 101° |
| 2026-05-07 17:19 | 37.87902 | -102.90991 | 38893 ft | 526 kts | 101° |
| 2026-05-07 17:19 | 37.86809 | -102.81825 | 38893 ft | 526 kts | 101° |
| 2026-05-07 17:20 | 37.85728 | -102.72656 | 38893 ft | 528 kts | 101° |
| 2026-05-07 17:20 | 37.84644 | -102.63462 | 38889 ft | 529 kts | 101° |
| 2026-05-07 17:21 | 37.83554 | -102.54261 | 38889 ft | 529 kts | 101° |
| 2026-05-07 17:21 | 37.82456 | -102.45061 | 38891 ft | 529 kts | 101° |
| 2026-05-07 17:22 | 37.81348 | -102.35854 | 38881 ft | 531 kts | 101° |
| 2026-05-07 17:22 | 37.80229 | -102.26621 | 38883 ft | 531 kts | 101° |
| 2026-05-07 17:23 | 37.79104 | -102.17392 | 38879 ft | 531 kts | 101° |
| 2026-05-07 17:23 | 37.77971 | -102.08167 | 38880 ft | 531 kts | 101° |
| 2026-05-07 17:24 | 37.76830 | -101.98936 | 38898 ft | 533 kts | 101° |
| 2026-05-07 17:24 | 37.75668 | -101.89683 | 38902 ft | 533 kts | 102° |
| 2026-05-07 17:25 | 37.74479 | -101.80440 | 38917 ft | 533 kts | 102° |
| 2026-05-07 17:25 | 37.73299 | -101.71187 | 38924 ft | 533 kts | 102° |
| 2026-05-07 17:26 | 37.72124 | -101.61931 | 38907 ft | 535 kts | 102° |
| 2026-05-07 17:26 | 37.70939 | -101.52644 | 38917 ft | 536 kts | 102° |
| 2026-05-07 17:27 | 37.69747 | -101.43360 | 38925 ft | 536 kts | 102° |
| 2026-05-07 17:27 | 37.68546 | -101.34072 | 38931 ft | 536 kts | 102° |
| 2026-05-07 17:28 | 37.67344 | -101.24846 | 38881 ft | 537 kts | 102° |
| 2026-05-07 17:28 | 37.66126 | -101.15548 | 38876 ft | 537 kts | 102° |
| 2026-05-07 17:29 | 37.64903 | -101.06269 | 38889 ft | 536 kts | 102° |
| 2026-05-07 17:29 | 37.63672 | -100.96994 | 38894 ft | 536 kts | 102° |
| 2026-05-07 17:30 | 37.62430 | -100.87733 | 38897 ft | 535 kts | 103° |
| 2026-05-07 17:30 | 37.61153 | -100.78475 | 38896 ft | 535 kts | 103° |
| 2026-05-07 17:31 | 37.59886 | -100.69229 | 38904 ft | 535 kts | 103° |
| 2026-05-07 17:31 | 37.58626 | -100.59976 | 38907 ft | 535 kts | 103° |
| 2026-05-07 17:32 | 37.57361 | -100.50721 | 38902 ft | 536 kts | 103° |
| 2026-05-07 17:32 | 37.56303 | -100.43025 | 38895 ft | 536 kts | 103° |
| 2026-05-07 17:33 | 37.54806 | -100.32205 | 38903 ft | 536 kts | 103° |
| 2026-05-07 17:33 | 37.53517 | -100.22955 | 38907 ft | 536 kts | 103° |
| 2026-05-07 17:34 | 37.52218 | -100.13696 | 38909 ft | 537 kts | 103° |
| 2026-05-07 17:34 | 37.50857 | -100.04457 | 38901 ft | 534 kts | 106° |
| 2026-05-07 17:35 | 37.49261 | -99.96969 | 38902 ft | 531 kts | 111° |
| 2026-05-07 17:35 | 37.47059 | -99.88095 | 38901 ft | 531 kts | 112° |
| 2026-05-07 17:36 | 37.44502 | -99.77776 | 38903 ft | 532 kts | 111° |
| 2026-05-07 17:36 | 37.42692 | -99.70309 | 38898 ft | 533 kts | 111° |
| 2026-05-07 17:37 | 37.40539 | -99.61381 | 38904 ft | 533 kts | 111° |
| 2026-05-07 17:37 | 37.38394 | -99.52525 | 38907 ft | 533 kts | 111° |
| 2026-05-07 17:38 | 37.36224 | -99.43612 | 38912 ft | 534 kts | 111° |
| 2026-05-07 17:38 | 37.34043 | -99.34688 | 38883 ft | 535 kts | 112° |
| 2026-05-07 17:39 | 37.31845 | -99.25734 | 38907 ft | 536 kts | 112° |
| 2026-05-07 17:39 | 37.29641 | -99.16782 | 38911 ft | 536 kts | 112° |
| 2026-05-07 17:40 | 37.27431 | -99.07837 | 38924 ft | 537 kts | 112° |
| 2026-05-07 17:40 | 37.25188 | -98.98889 | 38917 ft | 538 kts | 112° |
| 2026-05-07 17:41 | 37.22945 | -98.89985 | 38915 ft | 538 kts | 112° |
| 2026-05-07 17:41 | 37.20700 | -98.81025 | 38914 ft | 538 kts | 112° |
| 2026-05-07 17:42 | 37.18455 | -98.72064 | 38916 ft | 539 kts | 112° |
| 2026-05-07 17:42 | 37.16199 | -98.63098 | 38919 ft | 540 kts | 112° |
| 2026-05-07 17:43 | 37.13917 | -98.54067 | 38911 ft | 546 kts | 113° |
| 2026-05-07 17:43 | 37.11616 | -98.44988 | 38917 ft | 547 kts | 113° |
| 2026-05-07 17:44 | 37.09310 | -98.35917 | 38927 ft | 547 kts | 113° |
| 2026-05-07 17:44 | 37.06991 | -98.26836 | 38937 ft | 548 kts | 113° |
| 2026-05-07 17:45 | 37.04663 | -98.17749 | 38938 ft | 548 kts | 113° |
| 2026-05-07 17:45 | 37.02331 | -98.08683 | 38936 ft | 548 kts | 113° |
| 2026-05-07 17:46 | 36.99983 | -97.99616 | 38935 ft | 548 kts | 113° |
| 2026-05-07 17:46 | 36.97730 | -97.90471 | 38928 ft | 552 kts | 112° |
| 2026-05-07 17:47 | 36.95540 | -97.81299 | 38918 ft | 557 kts | 112° |
| 2026-05-07 17:47 | 36.93321 | -97.72016 | 38924 ft | 558 kts | 112° |
| 2026-05-07 17:48 | 36.91083 | -97.62732 | 38926 ft | 558 kts | 113° |
| 2026-05-07 17:48 | 36.88831 | -97.53450 | 38938 ft | 560 kts | 113° |
| 2026-05-07 17:49 | 36.86561 | -97.44134 | 38955 ft | 561 kts | 113° |
| 2026-05-07 17:49 | 36.84285 | -97.34821 | 38959 ft | 561 kts | 113° |
| 2026-05-07 17:50 | 36.82003 | -97.25518 | 38958 ft | 561 kts | 113° |
| 2026-05-07 17:50 | 36.79713 | -97.16216 | 38978 ft | 561 kts | 113° |
| 2026-05-07 17:51 | 36.77415 | -97.06922 | 38954 ft | 562 kts | 114° |
| 2026-05-07 17:51 | 36.75084 | -96.97593 | 38975 ft | 564 kts | 114° |
| 2026-05-07 17:52 | 36.72732 | -96.88266 | 38972 ft | 564 kts | 114° |
| 2026-05-07 17:52 | 36.70387 | -96.78930 | 38968 ft | 566 kts | 114° |
| 2026-05-07 17:53 | 36.68039 | -96.69572 | 38964 ft | 566 kts | 114° |
| 2026-05-07 17:53 | 36.65682 | -96.60204 | 38962 ft | 566 kts | 114° |
| 2026-05-07 17:54 | 36.63318 | -96.50850 | 38961 ft | 566 kts | 114° |
| 2026-05-07 17:54 | 36.60943 | -96.41492 | 38962 ft | 568 kts | 114° |
| 2026-05-07 17:55 | 36.58553 | -96.32114 | 38970 ft | 569 kts | 114° |
| 2026-05-07 17:55 | 36.56153 | -96.22728 | 38973 ft | 570 kts | 114° |
| 2026-05-07 17:56 | 36.53745 | -96.13340 | 38972 ft | 570 kts | 115° |
| 2026-05-07 17:56 | 36.51326 | -96.03952 | 38975 ft | 571 kts | 115° |
| 2026-05-07 17:57 | 36.49426 | -95.96067 | 38982 ft | 576 kts | 109° |
| 2026-05-07 17:57 | 36.47768 | -95.84559 | 38977 ft | 582 kts | 103° |
| 2026-05-07 17:58 | 36.46643 | -95.74601 | 38976 ft | 582 kts | 103° |
| 2026-05-07 17:58 | 36.45441 | -95.64671 | 38974 ft | 583 kts | 103° |
| 2026-05-07 17:59 | 36.44161 | -95.54734 | 38984 ft | 583 kts | 104° |
| 2026-05-07 17:59 | 36.42867 | -95.44859 | 38987 ft | 583 kts | 104° |
| 2026-05-07 18:00 | 36.41564 | -95.34934 | 38984 ft | 583 kts | 104° |
| 2026-05-07 18:00 | 36.40257 | -95.25022 | 38984 ft | 585 kts | 104° |
| 2026-05-07 18:01 | 36.38951 | -95.15168 | 38942 ft | 585 kts | 104° |
| 2026-05-07 18:01 | 36.37088 | -95.05443 | 38976 ft | 571 kts | 120° |
| 2026-05-07 18:02 | 36.33241 | -94.97192 | 38982 ft | 539 kts | 142° |
| 2026-05-07 18:02 | 36.30687 | -94.93912 | 38982 ft | 520 kts | 153° |
| 2026-05-07 18:02 | 36.27834 | -94.91323 | 38983 ft | 498 kts | 164° |
| 2026-05-07 18:03 | 36.24803 | -94.89460 | 38985 ft | 478 kts | 173° |
| 2026-05-07 18:03 | 36.18605 | -94.86896 | 38983 ft | 466 kts | 179° |
| 2026-05-07 18:04 | 36.12385 | -94.84689 | 38973 ft | 464 kts | 180° |
| 2026-05-07 18:04 | 36.06182 | -94.82474 | 38982 ft | 469 kts | 177° |
| 2026-05-07 18:04 | 36.03107 | -94.81010 | 38989 ft | 482 kts | 171° |
| 2026-05-07 18:05 | 36.00073 | -94.79115 | 38986 ft | 494 kts | 165° |
| 2026-05-07 18:05 | 35.94223 | -94.74468 | 38987 ft | 507 kts | 159° |
| 2026-05-07 18:06 | 35.88468 | -94.69382 | 38986 ft | 509 kts | 158° |
| 2026-05-07 18:06 | 35.82722 | -94.64311 | 38986 ft | 509 kts | 159° |
| 2026-05-07 18:07 | 35.76961 | -94.59313 | 38987 ft | 508 kts | 159° |
| 2026-05-07 18:07 | 35.71185 | -94.54343 | 38983 ft | 509 kts | 160° |
| 2026-05-07 18:08 | 35.65383 | -94.49383 | 38974 ft | 508 kts | 160° |
| 2026-05-07 18:08 | 35.59580 | -94.44418 | 38982 ft | 508 kts | 160° |
| 2026-05-07 18:09 | 35.53817 | -94.39487 | 38979 ft | 509 kts | 160° |
| 2026-05-07 18:09 | 35.48099 | -94.34295 | 38975 ft | 523 kts | 152° |
| 2026-05-07 18:09 | 35.45515 | -94.31045 | 38978 ft | 542 kts | 141° |
| 2026-05-07 18:10 | 35.43317 | -94.27199 | 38975 ft | 560 kts | 130° |
| 2026-05-07 18:10 | 35.41606 | -94.22874 | 38949 ft | 574 kts | 119° |
| 2026-05-07 18:10 | 35.40428 | -94.18152 | 38977 ft | 585 kts | 108° |
| 2026-05-07 18:10 | 35.39848 | -94.13185 | 38976 ft | 593 kts | 97° |
| 2026-05-07 18:11 | 35.39893 | -94.08132 | 38975 ft | 597 kts | 85° |
| 2026-05-07 18:11 | 35.41837 | -93.98324 | 38974 ft | 594 kts | 64° |
| 2026-05-07 18:12 | 35.45180 | -93.89080 | 38984 ft | 595 kts | 65° |
| 2026-05-07 18:12 | 35.47715 | -93.79388 | 38987 ft | 598 kts | 74° |
| 2026-05-07 18:13 | 35.49487 | -93.69401 | 38968 ft | 600 kts | 78° |
| 2026-05-07 18:13 | 35.51105 | -93.59360 | 38963 ft | 600 kts | 78° |
| 2026-05-07 18:14 | 35.52792 | -93.49332 | 38963 ft | 600 kts | 77° |
| 2026-05-07 18:14 | 35.54523 | -93.39318 | 38964 ft | 600 kts | 77° |
| 2026-05-07 18:15 | 35.56253 | -93.29304 | 38960 ft | 600 kts | 77° |
| 2026-05-07 18:15 | 35.57966 | -93.19296 | 38965 ft | 600 kts | 77° |
| 2026-05-07 18:16 | 35.59665 | -93.09252 | 38965 ft | 600 kts | 77° |
| 2026-05-07 18:16 | 35.61328 | -92.99221 | 38960 ft | 599 kts | 77° |
| 2026-05-07 18:17 | 35.63001 | -92.89182 | 38960 ft | 600 kts | 77° |
| 2026-05-07 18:17 | 35.64684 | -92.79121 | 38960 ft | 601 kts | 77° |
| 2026-05-07 18:18 | 35.66354 | -92.69089 | 38966 ft | 601 kts | 77° |
| 2026-05-07 18:18 | 35.68022 | -92.59002 | 38883 ft | 601 kts | 77° |
| 2026-05-07 18:18 | 35.68838 | -92.54045 | 38772 ft | 598 kts | 77° |
| 2026-05-07 18:19 | 35.69672 | -92.48969 | 38672 ft | 598 kts | 77° |
| 2026-05-07 18:19 | 35.70477 | -92.44056 | 37853 ft | 591 kts | 77° |
| 2026-05-07 18:19 | 35.71287 | -92.39099 | 37317 ft | 596 kts | 78° |
| 2026-05-07 18:19 | 35.72102 | -92.34095 | 36776 ft | 598 kts | 78° |
| 2026-05-07 18:20 | 35.72919 | -92.29068 | 36249 ft | 600 kts | 78° |
| 2026-05-07 18:20 | 35.73733 | -92.24041 | 35799 ft | 601 kts | 78° |
| 2026-05-07 18:20 | 35.74548 | -92.19000 | 35296 ft | 601 kts | 78° |
| 2026-05-07 18:20 | 35.75357 | -92.13976 | 34806 ft | 601 kts | 78° |
| 2026-05-07 18:21 | 35.76162 | -92.08925 | 34321 ft | 601 kts | 78° |
| 2026-05-07 18:21 | 35.76956 | -92.03864 | 33791 ft | 602 kts | 78° |
| 2026-05-07 18:21 | 35.77748 | -91.98810 | 33244 ft | 601 kts | 78° |
| 2026-05-07 18:21 | 35.78542 | -91.93760 | 32705 ft | 600 kts | 78° |
| 2026-05-07 18:22 | 35.79337 | -91.88724 | 32178 ft | 600 kts | 78° |
| 2026-05-07 18:22 | 35.79607 | -91.87020 | 32002 ft | 600 kts | 78° |
| 2026-05-07 18:22 | 35.80882 | -91.78609 | 31152 ft | 601 kts | 81° |
| 2026-05-07 18:22 | 35.81182 | -91.73489 | 30656 ft | 599 kts | 92° |
| 2026-05-07 18:23 | 35.80831 | -91.68398 | 30159 ft | 595 kts | 103° |
| 2026-05-07 18:23 | 35.79844 | -91.63511 | 29584 ft | 586 kts | 114° |
| 2026-05-07 18:23 | 35.78262 | -91.58948 | 29015 ft | 572 kts | 125° |
| 2026-05-07 18:23 | 35.76261 | -91.54791 | 28465 ft | 560 kts | 130° |
| 2026-05-07 18:24 | 35.74181 | -91.50766 | 27883 ft | 554 kts | 129° |
| 2026-05-07 18:24 | 35.72224 | -91.46709 | 27364 ft | 550 kts | 126° |
| 2026-05-07 18:24 | 35.71020 | -91.43970 | 27117 ft | 548 kts | 124° |
| 2026-05-07 18:24 | 35.69302 | -91.39734 | 26743 ft | 545 kts | 121° |
| 2026-05-07 18:25 | 35.67731 | -91.35581 | 26394 ft | 540 kts | 120° |
| 2026-05-07 18:25 | 35.66211 | -91.31417 | 26094 ft | 521 kts | 119° |
| 2026-05-07 18:25 | 35.64765 | -91.27409 | 26014 ft | 509 kts | 119° |
| 2026-05-07 18:25 | 35.63322 | -91.23459 | 26010 ft | 505 kts | 120° |
| 2026-05-07 18:26 | 35.61874 | -91.19540 | 26009 ft | 504 kts | 120° |
| 2026-05-07 18:26 | 35.60399 | -91.15574 | 26007 ft | 503 kts | 120° |
| 2026-05-07 18:26 | 35.58960 | -91.11721 | 26005 ft | 504 kts | 120° |
| 2026-05-07 18:26 | 35.57507 | -91.07828 | 26004 ft | 495 kts | 120° |
| 2026-05-07 18:27 | 35.56079 | -91.03998 | 25994 ft | 492 kts | 120° |
| 2026-05-07 18:27 | 35.54655 | -91.00188 | 25995 ft | 491 kts | 121° |
| 2026-05-07 18:27 | 35.53230 | -90.96385 | 25996 ft | 491 kts | 121° |
| 2026-05-07 18:27 | 35.51810 | -90.92596 | 25683 ft | 482 kts | 121° |
| 2026-05-07 18:28 | 35.50207 | -90.89023 | 24578 ft | 472 kts | 129° |
| 2026-05-07 18:28 | 35.48288 | -90.85764 | 23915 ft | 461 kts | 134° |
| 2026-05-07 18:28 | 35.46316 | -90.82779 | 23219 ft | 452 kts | 136° |
| 2026-05-07 18:28 | 35.44305 | -90.79859 | 22481 ft | 445 kts | 136° |
| 2026-05-07 18:29 | 35.42317 | -90.76988 | 21762 ft | 439 kts | 136° |
| 2026-05-07 18:29 | 35.40359 | -90.74134 | 20950 ft | 436 kts | 136° |
| 2026-05-07 18:29 | 35.38427 | -90.71290 | 20095 ft | 431 kts | 135° |
| 2026-05-07 18:29 | 35.36532 | -90.68480 | 19277 ft | 424 kts | 135° |
| 2026-05-07 18:30 | 35.34672 | -90.65711 | 18473 ft | 418 kts | 134° |
| 2026-05-07 18:30 | 35.32844 | -90.62982 | 17565 ft | 412 kts | 134° |
| 2026-05-07 18:30 | 35.31046 | -90.60297 | 16656 ft | 407 kts | 134° |
| 2026-05-07 18:30 | 35.29263 | -90.57635 | 15787 ft | 401 kts | 135° |
| 2026-05-07 18:31 | 35.27502 | -90.55011 | 14943 ft | 397 kts | 135° |
| 2026-05-07 18:31 | 35.25758 | -90.52414 | 14125 ft | 393 kts | 135° |
| 2026-05-07 18:31 | 35.24030 | -90.49844 | 13205 ft | 390 kts | 136° |
| 2026-05-07 18:31 | 35.22313 | -90.47296 | 12315 ft | 387 kts | 135° |
| 2026-05-07 18:32 | 35.20612 | -90.44771 | 11636 ft | 378 kts | 135° |
| 2026-05-07 18:32 | 35.18978 | -90.42337 | 11271 ft | 362 kts | 135° |
| 2026-05-07 18:32 | 35.17457 | -90.40064 | 10897 ft | 333 kts | 135° |
| 2026-05-07 18:32 | 35.16015 | -90.37919 | 10542 ft | 323 kts | 135° |
| 2026-05-07 18:33 | 35.14593 | -90.35819 | 10026 ft | 319 kts | 135° |
| 2026-05-07 18:33 | 35.13173 | -90.33733 | 9347 ft | 321 kts | 134° |
| 2026-05-07 18:33 | 35.11739 | -90.31628 | 8692 ft | 323 kts | 133° |
| 2026-05-07 18:33 | 35.10332 | -90.29553 | 8052 ft | 308 kts | 132° |
| 2026-05-07 18:34 | 35.08997 | -90.27580 | 7406 ft | 295 kts | 131° |
| 2026-05-07 18:34 | 35.07712 | -90.25684 | 6776 ft | 285 kts | 130° |
| 2026-05-07 18:34 | 35.06473 | -90.23859 | 6136 ft | 277 kts | 129° |
| 2026-05-07 18:34 | 35.05259 | -90.22071 | 5471 ft | 270 kts | 129° |
| 2026-05-07 18:35 | 35.04077 | -90.20331 | 4804 ft | 263 kts | 128° |
| 2026-05-07 18:35 | 35.02925 | -90.18634 | 4225 ft | 260 kts | 127° |
| 2026-05-07 18:35 | 35.01779 | -90.16945 | 3848 ft | 258 kts | 127° |
| 2026-05-07 18:35 | 35.00641 | -90.15267 | 3458 ft | 256 kts | 127° |
| 2026-05-07 18:36 | 34.99513 | -90.13605 | 3095 ft | 253 kts | 127° |
| 2026-05-07 18:36 | 34.98398 | -90.11958 | 2984 ft | 250 kts | 127° |
| 2026-05-07 18:36 | 34.97283 | -90.10326 | 2971 ft | 251 kts | 128° |
| 2026-05-07 18:36 | 34.96168 | -90.08702 | 2827 ft | 249 kts | 128° |
| 2026-05-07 18:37 | 34.95055 | -90.07086 | 2725 ft | 250 kts | 128° |
| 2026-05-07 18:37 | 34.93946 | -90.05470 | 2568 ft | 239 kts | 127° |
| 2026-05-07 18:37 | 34.92962 | -90.04040 | 2443 ft | 206 kts | 127° |
| 2026-05-07 18:37 | 34.92067 | -90.02702 | 2310 ft | 201 kts | 122° |
| 2026-05-07 18:38 | 34.91592 | -90.01167 | 2162 ft | 189 kts | 88° |
| 2026-05-07 18:38 | 34.92044 | -89.99785 | 1986 ft | 175 kts | 42° |
| 2026-05-07 18:38 | 34.93142 | -89.99227 | 1997 ft | 170 kts | 7° |
| 2026-05-07 18:38 | 34.94210 | -89.99107 | 1966 ft | 144 kts | 4° |
| 2026-05-07 18:39 | 34.95188 | -89.99033 | 1944 ft | 138 kts | 3° |
| 2026-05-07 18:39 | 34.96140 | -89.98986 | 2021 ft | 130 kts | 7° |
| 2026-05-07 18:39 | 34.97016 | -89.98732 | 1850 ft | 133 kts | 10° |
| 2026-05-07 18:39 | 34.97950 | -89.98627 | 1610 ft | 132 kts | 0° |
| 2026-05-07 18:40 | 34.98806 | -89.98622 | 1204 ft | 118 kts | 359° |
| 2026-05-07 18:40 | 34.99739 | -89.98666 | 943 ft | 153 kts | 358° |
| 2026-05-07 18:40 | 35.00768 | -89.98661 | 725 ft | 142 kts | 0° |
| 2026-05-07 18:40 | 35.01722 | -89.98663 | 513 ft | 134 kts | 356° |
| 2026-05-07 18:41 | 35.02613 | -89.98693 | 355 ft | 117 kts | 357° |
| 2026-05-07 18:41 | 35.03261 | -89.98711 | 338 ft | 68 kts | 359° |
| 2026-05-07 18:41 | 35.03588 | -89.98715 | 337 ft | 30 kts | 359° |
| 2026-05-07 18:41 | 35.03745 | -89.98718 | 337 ft | 26 kts | 359° |
| 2026-05-07 18:42 | 35.03976 | -89.98724 | 334 ft | 39 kts | 358° |
| 2026-05-07 18:42 | 35.04264 | -89.98736 | 333 ft | 48 kts | 358° |
| 2026-05-07 18:42 | 35.04535 | -89.98702 | 336 ft | 29 kts | 21° |
| 2026-05-07 18:42 | 35.04666 | -89.98608 | 336 ft | 12 kts | 25° |
| 2026-05-07 18:43 | 35.04708 | -89.98604 | 334 ft | 9 kts | 356° |
| 2026-05-07 18:43 | 35.04793 | -89.98608 | 336 ft | 13 kts | 358° |
| 2026-05-07 18:43 | 35.04879 | -89.98609 | 336 ft | 13 kts | 359° |
| 2026-05-07 18:43 | 35.04983 | -89.98595 | 335 ft | 20 kts | 14° |
| 2026-05-07 18:44 | 35.05130 | -89.98516 | 336 ft | 21 kts | 13° |
| 2026-05-07 18:44 | 35.05271 | -89.98512 | 336 ft | 21 kts | 0° |
| 2026-05-07 18:44 | 35.05416 | -89.98510 | 335 ft | 21 kts | 0° |
| 2026-05-07 18:44 | 35.05567 | -89.98509 | 335 ft | 22 kts | 0° |
| 2026-05-07 18:45 | 35.05722 | -89.98508 | 335 ft | 23 kts | 0° |
| 2026-05-07 18:45 | 35.05884 | -89.98508 | 334 ft | 23 kts | 355° |
| 2026-05-07 18:45 | 35.06006 | -89.98509 | 335 ft | 8 kts | 24° |
| 2026-05-07 18:45 | 35.06022 | -89.98483 | 334 ft | 4 kts | 66° |
| 2026-05-07 18:46 | 35.06023 | -89.98436 | 334 ft | 10 kts | 90° |
| 2026-05-07 18:46 | 35.06020 | -89.98286 | 335 ft | 25 kts | 93° |
| 2026-05-07 18:46 | 35.06012 | -89.98045 | 335 ft | 30 kts | 92° |
| 2026-05-07 18:46 | 35.06006 | -89.97791 | 338 ft | 30 kts | 95° |
| 2026-05-07 18:47 | 35.05952 | -89.97542 | 334 ft | 31 kts | 107° |
| 2026-05-07 18:47 | 35.05936 | -89.97285 | 334 ft | 31 kts | 90° |
| 2026-05-07 18:47 | 35.05930 | -89.97021 | 338 ft | 27 kts | 93° |
| 2026-05-07 18:47 | 35.05924 | -89.96840 | 338 ft | 21 kts | 92° |
| 2026-05-07 18:48 | 35.05921 | -89.96656 | 334 ft | 22 kts | 91° |
| 2026-05-07 18:48 | 35.05919 | -89.96553 | 335 ft | 9 kts | 91° |
| 2026-05-07 18:48 | 35.05916 | -89.96481 | 338 ft | 9 kts | 94° |
| 2026-05-07 18:48 | 35.05910 | -89.96346 | 334 ft | 24 kts | 92° |
| 2026-05-07 18:49 | 35.05904 | -89.96111 | 335 ft | 29 kts | 91° |
| 2026-05-07 18:49 | 35.05898 | -89.95861 | 337 ft | 30 kts | 92° |
| 2026-05-07 18:49 | 35.05891 | -89.95659 | 338 ft | 17 kts | 93° |
| 2026-05-07 18:49 | 35.05904 | -89.95566 | 336 ft | 1 kts | 45° |
| 2026-05-07 18:50 | 35.05930 | -89.95550 | 334 ft | 6 kts | 17° |
| 2026-05-07 18:50 | 35.06004 | -89.95545 | 336 ft | 16 kts | 4° |
| 2026-05-07 18:50 | 35.06091 | -89.95541 | 335 ft | 10 kts | 2° |
| 2026-05-07 18:50 | 35.06113 | -89.95535 | 336 ft | 3 kts | 25° |
| 2026-05-07 18:51 | 35.06121 | -89.95514 | 334 ft | 2 kts | 78° |
| 2026-05-07 18:51 | 35.06120 | -89.95481 | 335 ft | 4 kts | 90° |
| 2026-05-07 18:51 | 35.06120 | -89.95459 | 335 ft | 0 kts | 90° |